Time;durP1;ratioP1;P1;durP2;ratioP2;P2;SDS_P1;SDS_P2;PMS_P1;PMS_P2;Temp;Humidity;BMP_temperature;BMP_pressure;BME280_temperature;BME280_humidity;BME280_pressure;Samples;Min_cycle;Max_cycle;Signal;HPM_P1;HPM_P2
2023/09/09 00:00:39;;;;;;;7.78;5.72;;;;;;;;;;5025718;28;20060;-69
2023/09/09 00:03:06;;;;;;;7.32;5.30;;;;;;;;;;5029208;28;20049;-69
2023/09/09 00:05:33;;;;;;;7.22;5.53;;;;;;;;;;5030557;28;20405;-69
2023/09/09 00:07:59;;;;;;;7.82;6.03;;;;;;;;;;5021499;28;20061;-69
2023/09/09 00:10:24;;;;;;;7.75;5.90;;;;;;;;;;5024376;28;20057;-69
2023/09/09 00:12:50;;;;;;;7.80;6.10;;;;;;;;;;5028826;28;20060;-69
2023/09/09 00:15:15;;;;;;;9.07;5.60;;;;;;;;;;5020590;28;20057;-69
2023/09/09 00:17:41;;;;;;;8.63;6.22;;;;;;;;;;5025271;28;20057;-69
2023/09/09 00:20:11;;;;;;;7.50;6.22;;;;;;;;;;5024416;28;20137;-70
2023/09/09 00:22:37;;;;;;;7.15;5.90;;;;;;;;;;5028127;28;20139;-70
2023/09/09 00:25:03;;;;;;;8.63;6.97;;;;;;;;;;5037683;28;20076;-71
2023/09/09 00:27:28;;;;;;;8.60;6.68;;;;;;;;;;5032361;28;20191;-71
2023/09/09 00:29:53;;;;;;;12.52;6.72;;;;;;;;;;5023244;28;20520;-71
2023/09/09 00:32:19;;;;;;;9.68;6.13;;;;;;;;;;5021380;28;20398;-71
2023/09/09 00:34:44;;;;;;;11.48;6.43;;;;;;;;;;5039011;28;20052;-69
2023/09/09 00:37:10;;;;;;;7.47;5.78;;;;;;;;;;5027282;28;20057;-71
2023/09/09 00:39:35;;;;;;;9.45;6.00;;;;;;;;;;5021992;28;20127;-71
2023/09/09 00:42:00;;;;;;;8.73;5.82;;;;;;;;;;5019410;28;20055;-71
2023/09/09 00:44:26;;;;;;;8.23;6.10;;;;;;;;;;5026771;28;20038;-71
2023/09/09 00:46:52;;;;;;;7.50;6.15;;;;;;;;;;5036937;28;20509;-69
2023/09/09 00:49:17;;;;;;;8.85;6.07;;;;;;;;;;5028855;28;20525;-71
2023/09/09 00:51:44;;;;;;;8.02;5.72;;;;;;;;;;5031413;28;20056;-71
2023/09/09 00:54:11;;;;;;;9.13;5.90;;;;;;;;;;5019556;28;20049;-71
2023/09/09 00:56:36;;;;;;;6.47;5.65;;;;;;;;;;5038304;28;20036;-71
2023/09/09 00:59:03;;;;;;;9.93;5.35;;;;;;;;;;5020133;28;20048;-71
2023/09/09 01:01:29;;;;;;;6.28;5.57;;;;;;;;;;5026760;28;20395;-71
2023/09/09 01:03:54;;;;;;;6.35;5.28;;;;;;;;;;5021591;28;20053;-71
2023/09/09 01:06:21;;;;;;;7.47;5.35;;;;;;;;;;5019868;28;20080;-71
2023/09/09 01:08:46;;;;;;;6.47;5.10;;;;;;;;;;5020188;28;20053;-71
2023/09/09 01:11:12;;;;;;;7.63;5.80;;;;;;;;;;5019081;28;20131;-71
2023/09/09 01:13:37;;;;;;;6.85;5.18;;;;;;;;;;5020159;28;20069;-71
2023/09/09 01:16:03;;;;;;;8.70;6.10;;;;;;;;;;5034825;28;20048;-71
2023/09/09 01:18:30;;;;;;;10.10;5.57;;;;;;;;;;5042000;28;20048;-69
2023/09/09 01:21:07;;;;;;;8.93;6.10;;;;;;;;;;5029530;28;20057;-69
2023/09/09 01:23:33;;;;;;;7.93;5.65;;;;;;;;;;5039483;28;20517;-69
2023/09/09 01:25:59;;;;;;;9.75;6.00;;;;;;;;;;5024243;28;20041;-69
2023/09/09 01:28:26;;;;;;;7.03;5.97;;;;;;;;;;5019741;28;20101;-69
2023/09/09 01:30:52;;;;;;;6.88;5.80;;;;;;;;;;5036496;28;20060;-71
2023/09/09 01:33:18;;;;;;;9.30;6.75;;;;;;;;;;5026615;28;20072;-71
2023/09/09 01:35:44;;;;;;;9.65;6.10;;;;;;;;;;5035770;28;20905;-72
2023/09/09 01:38:10;;;;;;;10.98;6.90;;;;;;;;;;5034987;28;20049;-71
2023/09/09 01:40:35;;;;;;;8.95;6.15;;;;;;;;;;5031190;28;20111;-71
2023/09/09 01:43:01;;;;;;;10.02;6.35;;;;;;;;;;5034815;28;20050;-71
2023/09/09 01:45:26;;;;;;;7.93;6.28;;;;;;;;;;5028258;28;20154;-73
2023/09/09 01:47:52;;;;;;;8.38;6.43;;;;;;;;;;5035458;28;20430;-71
2023/09/09 01:50:18;;;;;;;7.20;5.95;;;;;;;;;;5027240;28;20056;-71
2023/09/09 01:52:44;;;;;;;8.80;6.43;;;;;;;;;;5038150;28;20056;-71
2023/09/09 01:55:10;;;;;;;9.27;6.15;;;;;;;;;;5027864;28;20056;-71
2023/09/09 01:57:35;;;;;;;8.02;5.72;;;;;;;;;;5035916;28;20055;-71
2023/09/09 02:00:06;;;;;;;10.50;5.93;;;;;;;;;;5045879;28;20638;-71
2023/09/09 02:02:38;;;;;;;8.05;5.90;;;;;;;;;;5028572;28;20048;-69
2023/09/09 02:05:04;;;;;;;10.00;6.03;;;;;;;;;;5022052;28;20383;-69
2023/09/09 02:07:29;;;;;;;9.02;6.63;;;;;;;;;;5024942;28;20049;-71
2023/09/09 02:09:55;;;;;;;9.45;6.63;;;;;;;;;;5020629;28;20068;-71
2023/09/09 02:12:21;;;;;;;7.65;6.22;;;;;;;;;;5037289;28;20051;-71
2023/09/09 02:14:48;;;;;;;7.57;5.95;;;;;;;;;;5037449;28;20047;-71
2023/09/09 02:17:13;;;;;;;9.15;6.88;;;;;;;;;;5021541;28;20037;-71
2023/09/09 02:19:38;;;;;;;7.80;5.93;;;;;;;;;;5027681;28;20053;-71
2023/09/09 02:22:07;;;;;;;13.48;6.65;;;;;;;;;;5035248;28;20075;-71
2023/09/09 02:24:33;;;;;;;7.60;5.95;;;;;;;;;;5043082;28;20044;-71
2023/09/09 02:26:59;;;;;;;8.95;6.40;;;;;;;;;;5035528;28;20040;-71
2023/09/09 02:29:24;;;;;;;10.10;6.35;;;;;;;;;;5018455;28;20122;-71
2023/09/09 02:31:50;;;;;;;8.18;5.97;;;;;;;;;;5036813;28;20044;-71
2023/09/09 02:34:15;;;;;;;7.28;6.03;;;;;;;;;;5036729;28;20041;-71
2023/09/09 02:36:45;;;;;;;9.38;6.22;;;;;;;;;;5036944;28;20608;-71
2023/09/09 02:39:10;;;;;;;9.00;6.07;;;;;;;;;;5028743;28;20057;-70
2023/09/09 02:41:37;;;;;;;9.57;6.47;;;;;;;;;;5019825;28;20059;-68
2023/09/09 02:44:02;;;;;;;9.82;6.55;;;;;;;;;;5034645;28;20052;-70
2023/09/09 02:46:28;;;;;;;7.55;6.20;;;;;;;;;;5025059;28;20383;-70
2023/09/09 02:48:53;;;;;;;7.30;6.25;;;;;;;;;;5028732;28;20049;-70
2023/09/09 02:51:19;;;;;;;10.70;7.55;;;;;;;;;;5028052;28;20072;-71
2023/09/09 02:53:44;;;;;;;8.55;6.35;;;;;;;;;;5037529;28;20041;-70
2023/09/09 02:56:09;;;;;;;8.35;6.38;;;;;;;;;;5038458;28;20964;-71
2023/09/09 02:58:35;;;;;;;10.77;6.80;;;;;;;;;;5040527;28;20457;-70
2023/09/09 03:01:07;;;;;;;7.63;6.18;;;;;;;;;;5025616;28;20069;-70
2023/09/09 03:03:35;;;;;;;9.40;6.82;;;;;;;;;;5033372;28;20620;-70
2023/09/09 03:06:01;;;;;;;9.07;6.95;;;;;;;;;;5023589;28;20111;-70
2023/09/09 03:08:27;;;;;;;10.75;6.72;;;;;;;;;;5024247;28;20166;-70
2023/09/09 03:10:53;;;;;;;9.43;6.72;;;;;;;;;;5037071;28;20055;-70
2023/09/09 03:13:19;;;;;;;10.93;6.30;;;;;;;;;;5022653;28;20057;-70
2023/09/09 03:15:44;;;;;;;11.15;7.00;;;;;;;;;;5040809;28;20409;-70
2023/09/09 03:18:09;;;;;;;8.55;6.65;;;;;;;;;;5039034;28;20136;-71
2023/09/09 03:20:35;;;;;;;9.57;6.55;;;;;;;;;;5037707;28;20060;-70
2023/09/09 03:23:00;;;;;;;9.32;6.63;;;;;;;;;;5038183;28;20136;-70
2023/09/09 03:25:26;;;;;;;10.07;6.32;;;;;;;;;;5035870;28;20810;-70
2023/09/09 03:27:51;;;;;;;7.90;6.38;;;;;;;;;;5039917;28;20102;-70
2023/09/09 03:30:17;;;;;;;10.02;6.95;;;;;;;;;;5038396;28;20076;-70
2023/09/09 03:32:43;;;;;;;9.77;7.00;;;;;;;;;;5029050;28;20079;-70
2023/09/09 03:35:08;;;;;;;8.90;7.28;;;;;;;;;;5021441;28;20123;-70
2023/09/09 03:37:34;;;;;;;12.52;6.97;;;;;;;;;;5019789;28;20045;-70
2023/09/09 03:39:59;;;;;;;9.25;6.43;;;;;;;;;;5036418;28;20140;-70
2023/09/09 03:42:25;;;;;;;8.63;6.80;;;;;;;;;;5025248;28;21407;-71
2023/09/09 03:44:52;;;;;;;9.85;7.25;;;;;;;;;;5033413;28;21346;-71
2023/09/09 03:47:19;;;;;;;12.77;7.43;;;;;;;;;;5032078;28;20057;-71
2023/09/09 03:49:45;;;;;;;12.02;7.35;;;;;;;;;;5035699;28;20536;-71
2023/09/09 03:52:10;;;;;;;9.63;7.68;;;;;;;;;;5034022;28;20136;-70
2023/09/09 03:54:35;;;;;;;15.82;8.10;;;;;;;;;;5029497;28;20066;-70
2023/09/09 03:57:01;;;;;;;9.65;7.35;;;;;;;;;;5034781;28;20045;-70
2023/09/09 03:59:29;;;;;;;12.88;8.05;;;;;;;;;;5037610;28;20052;-70
2023/09/09 04:01:54;;;;;;;10.63;8.20;;;;;;;;;;5035479;28;20414;-70
2023/09/09 04:04:20;;;;;;;12.38;7.63;;;;;;;;;;5023100;28;20044;-70
2023/09/09 04:06:46;;;;;;;12.60;8.32;;;;;;;;;;5035187;28;20046;-70
2023/09/09 04:09:20;;;;;;;13.13;8.75;;;;;;;;;;5048895;28;20051;-71
2023/09/09 04:11:46;;;;;;;14.15;8.13;;;;;;;;;;5038153;28;20156;-70
2023/09/09 04:14:11;;;;;;;13.57;8.95;;;;;;;;;;5035166;28;21079;-70
2023/09/09 04:16:36;;;;;;;14.10;8.57;;;;;;;;;;5035176;28;20059;-71
2023/09/09 04:19:02;;;;;;;12.20;7.88;;;;;;;;;;5043024;28;20037;-70
2023/09/09 04:21:28;;;;;;;14.80;8.75;;;;;;;;;;5022551;28;20060;-71
2023/09/09 04:23:53;;;;;;;10.95;7.65;;;;;;;;;;5035023;28;20291;-70
2023/09/09 04:26:19;;;;;;;11.82;8.20;;;;;;;;;;5044695;28;20148;-71
2023/09/09 04:28:44;;;;;;;11.27;7.90;;;;;;;;;;5034363;28;20506;-70
2023/09/09 04:31:10;;;;;;;11.65;7.90;;;;;;;;;;5034337;28;20061;-71
2023/09/09 04:33:39;;;;;;;13.13;7.80;;;;;;;;;;5034950;28;20045;-71
2023/09/09 04:36:05;;;;;;;13.90;7.25;;;;;;;;;;5034825;28;20493;-71
2023/09/09 04:38:31;;;;;;;14.77;8.07;;;;;;;;;;5025231;28;20049;-71
2023/09/09 04:40:57;;;;;;;9.55;7.43;;;;;;;;;;5038046;28;20037;-71
2023/09/09 04:43:22;;;;;;;13.10;8.65;;;;;;;;;;5020644;28;20598;-71
2023/09/09 04:45:48;;;;;;;12.07;8.30;;;;;;;;;;4985545;28;1073209;-71
2023/09/09 04:48:13;;;;;;;16.00;8.63;;;;;;;;;;5035495;28;20053;-72
2023/09/09 04:50:39;;;;;;;11.82;8.02;;;;;;;;;;5039129;28;20045;-71
2023/09/09 04:53:05;;;;;;;13.32;8.95;;;;;;;;;;5034986;28;20212;-71
2023/09/09 04:55:31;;;;;;;12.77;8.75;;;;;;;;;;5037693;28;20129;-70
2023/09/09 04:57:57;;;;;;;12.50;8.35;;;;;;;;;;5035354;28;20386;-71
2023/09/09 05:00:23;;;;;;;11.65;8.30;;;;;;;;;;5036045;28;20048;-70
2023/09/09 05:02:48;;;;;;;13.35;9.07;;;;;;;;;;5036444;28;20203;-71
2023/09/09 05:05:14;;;;;;;13.52;9.75;;;;;;;;;;5041482;28;20084;-70
2023/09/09 05:07:39;;;;;;;16.33;8.98;;;;;;;;;;5023482;28;20072;-71
2023/09/09 05:10:06;;;;;;;12.75;9.38;;;;;;;;;;5037829;28;20069;-71
2023/09/09 05:12:36;;;;;;;13.63;8.63;;;;;;;;;;5026193;28;20041;-70
2023/09/09 05:15:04;;;;;;;12.02;8.88;;;;;;;;;;5034267;28;20102;-69
2023/09/09 05:17:29;;;;;;;10.27;8.25;;;;;;;;;;5028283;28;20037;-72
2023/09/09 05:19:55;;;;;;;11.80;8.35;;;;;;;;;;5022826;28;20444;-72
2023/09/09 05:22:20;;;;;;;12.70;9.25;;;;;;;;;;5020224;28;20045;-72
2023/09/09 05:24:46;;;;;;;11.50;9.02;;;;;;;;;;5019436;28;20053;-71
2023/09/09 05:27:11;;;;;;;12.32;9.02;;;;;;;;;;5036298;28;20490;-75
2023/09/09 05:29:37;;;;;;;12.63;8.77;;;;;;;;;;5034561;28;20053;-70
2023/09/09 05:32:05;;;;;;;11.55;8.82;;;;;;;;;;5034921;28;20047;-70
2023/09/09 05:34:30;;;;;;;12.35;9.40;;;;;;;;;;5008461;28;20045;-69
2023/09/09 05:36:56;;;;;;;16.58;9.50;;;;;;;;;;5034336;28;20190;-70
2023/09/09 05:39:21;;;;;;;11.18;8.60;;;;;;;;;;5034251;28;20143;-70
2023/09/09 05:41:47;;;;;;;11.85;7.60;;;;;;;;;;5042849;28;20438;-69
2023/09/09 05:44:13;;;;;;;10.23;7.63;;;;;;;;;;5039746;28;20045;-69
2023/09/09 05:46:39;;;;;;;11.35;8.15;;;;;;;;;;5020651;28;20632;-69
2023/09/09 05:49:04;;;;;;;7.72;5.72;;;;;;;;;;5023137;28;20075;-70
2023/09/09 05:51:31;;;;;;;10.35;7.22;;;;;;;;;;5019643;28;20132;-70
2023/09/09 05:53:57;;;;;;;11.80;6.68;;;;;;;;;;5034100;28;20127;-69
2023/09/09 05:56:22;;;;;;;9.50;6.70;;;;;;;;;;5016264;28;20068;-70
2023/09/09 05:58:48;;;;;;;10.40;6.93;;;;;;;;;;5017554;28;20046;-70
2023/09/09 06:01:13;;;;;;;8.88;6.60;;;;;;;;;;5032440;28;20075;-70
2023/09/09 06:03:39;;;;;;;11.30;7.22;;;;;;;;;;5036281;28;20057;-70
2023/09/09 06:06:04;;;;;;;8.77;7.50;;;;;;;;;;5035810;28;20056;-71
2023/09/09 06:08:30;;;;;;;9.70;7.85;;;;;;;;;;5032365;28;20104;-70
2023/09/09 06:10:56;;;;;;;10.93;7.93;;;;;;;;;;5018683;28;20046;-70
2023/09/09 06:13:21;;;;;;;12.60;8.18;;;;;;;;;;5032587;28;20049;-71
2023/09/09 06:15:47;;;;;;;11.57;8.07;;;;;;;;;;5025187;28;20136;-70
2023/09/09 06:18:12;;;;;;;13.05;8.73;;;;;;;;;;5017079;28;20059;-69
2023/09/09 06:20:38;;;;;;;10.27;7.63;;;;;;;;;;5023182;28;20044;-69
2023/09/09 06:23:03;;;;;;;11.82;8.60;;;;;;;;;;5020028;28;20037;-69
2023/09/09 06:25:29;;;;;;;11.85;7.85;;;;;;;;;;5031673;28;20191;-70
2023/09/09 06:27:55;;;;;;;10.73;8.55;;;;;;;;;;5017964;28;20063;-70
2023/09/09 06:30:20;;;;;;;9.65;8.02;;;;;;;;;;5033260;28;20053;-70
2023/09/09 06:32:46;;;;;;;11.48;8.55;;;;;;;;;;5034853;28;20051;-69
2023/09/09 06:35:11;;;;;;;11.48;8.25;;;;;;;;;;5025628;28;20076;-69
2023/09/09 06:37:37;;;;;;;10.60;8.30;;;;;;;;;;5025662;28;20103;-69
2023/09/09 06:40:02;;;;;;;13.50;8.68;;;;;;;;;;5021631;28;20069;-69
2023/09/09 06:42:28;;;;;;;11.75;8.32;;;;;;;;;;5016728;28;20051;-69
2023/09/09 06:44:59;;;;;;;9.05;7.65;;;;;;;;;;5039143;28;20126;-69
2023/09/09 06:47:24;;;;;;;10.98;8.77;;;;;;;;;;5019180;28;20073;-69
2023/09/09 06:49:50;;;;;;;12.25;9.07;;;;;;;;;;5022182;28;20108;-71
2023/09/09 06:52:16;;;;;;;11.10;8.43;;;;;;;;;;5033935;28;20087;-70
2023/09/09 06:54:43;;;;;;;12.85;8.23;;;;;;;;;;5019131;28;20127;-71
2023/09/09 06:57:09;;;;;;;9.45;8.23;;;;;;;;;;5021500;28;20068;-70
2023/09/09 06:59:35;;;;;;;10.90;9.13;;;;;;;;;;5026662;28;20073;-69
2023/09/09 07:02:02;;;;;;;11.80;9.07;;;;;;;;;;5026454;28;20045;-69
2023/09/09 07:04:27;;;;;;;12.98;8.88;;;;;;;;;;5024710;28;20163;-69
2023/09/09 07:06:53;;;;;;;12.68;9.65;;;;;;;;;;5026731;28;20047;-69
2023/09/09 07:09:20;;;;;;;10.35;8.73;;;;;;;;;;5030865;28;20041;-69
2023/09/09 07:11:46;;;;;;;12.18;7.75;;;;;;;;;;5033715;28;20071;-69
2023/09/09 07:14:11;;;;;;;13.50;9.10;;;;;;;;;;5018609;28;20038;-69
2023/09/09 07:16:37;;;;;;;10.70;8.52;;;;;;;;;;5017873;28;20137;-69
2023/09/09 07:19:02;;;;;;;10.20;8.32;;;;;;;;;;5017271;28;20049;-70
2023/09/09 07:21:28;;;;;;;14.82;7.97;;;;;;;;;;5016282;28;20087;-69
2023/09/09 07:23:53;;;;;;;11.63;8.27;;;;;;;;;;5017902;28;20042;-69
2023/09/09 07:26:18;;;;;;;11.93;8.68;;;;;;;;;;5017257;28;20049;-69
2023/09/09 07:28:45;;;;;;;9.35;7.22;;;;;;;;;;5020545;28;20052;-69
2023/09/09 07:31:11;;;;;;;10.18;7.35;;;;;;;;;;5021011;28;20065;-70
2023/09/09 07:33:36;;;;;;;8.50;7.20;;;;;;;;;;5036017;28;20456;-69
2023/09/09 07:36:02;;;;;;;9.52;7.53;;;;;;;;;;5028468;28;20105;-70
2023/09/09 07:38:27;;;;;;;9.07;7.55;;;;;;;;;;5040213;28;21036;-69
2023/09/09 07:41:01;;;;;;;8.07;6.38;;;;;;;;;;5032212;28;20045;-69
2023/09/09 07:43:27;;;;;;;7.57;6.65;;;;;;;;;;5021331;28;20060;-69
2023/09/09 07:45:53;;;;;;;8.15;6.82;;;;;;;;;;5032679;28;20041;-69
2023/09/09 07:48:18;;;;;;;7.47;6.68;;;;;;;;;;5018790;28;20131;-69
2023/09/09 07:50:54;;;;;;;8.30;6.22;;;;;;;;;;5030349;28;20037;-69
2023/09/09 07:53:20;;;;;;;7.22;6.35;;;;;;;;;;5033917;28;20052;-69
2023/09/09 07:55:50;;;;;;;6.93;6.22;;;;;;;;;;5028066;28;20041;-69
2023/09/09 07:58:16;;;;;;;9.65;6.63;;;;;;;;;;5027110;28;20119;-69
2023/09/09 08:00:43;;;;;;;7.18;6.40;;;;;;;;;;5027257;28;20125;-69
2023/09/09 08:03:10;;;;;;;8.05;5.60;;;;;;;;;;5034152;28;20763;-69
2023/09/09 08:05:37;;;;;;;9.25;6.80;;;;;;;;;;5032074;28;20051;-72
2023/09/09 08:08:02;;;;;;;7.93;6.05;;;;;;;;;;5024120;28;20053;-69
2023/09/09 08:10:28;;;;;;;7.55;6.18;;;;;;;;;;5027009;28;20045;-69
2023/09/09 08:12:53;;;;;;;7.10;5.65;;;;;;;;;;5028284;28;20557;-70
2023/09/09 08:15:19;;;;;;;7.90;6.38;;;;;;;;;;5021022;28;20049;-70
2023/09/09 08:17:44;;;;;;;7.47;6.20;;;;;;;;;;5026016;28;20150;-70
2023/09/09 08:20:10;;;;;;;9.90;5.85;;;;;;;;;;5022675;28;20449;-70
2023/09/09 08:22:35;;;;;;;6.50;5.43;;;;;;;;;;5029137;28;20049;-70
2023/09/09 08:25:01;;;;;;;6.65;5.72;;;;;;;;;;5025013;28;20041;-71
2023/09/09 08:27:27;;;;;;;6.65;5.38;;;;;;;;;;5030723;28;20045;-70
2023/09/09 08:29:52;;;;;;;6.93;5.93;;;;;;;;;;5020778;28;20114;-71
2023/09/09 08:32:17;;;;;;;7.18;5.78;;;;;;;;;;5021188;28;20057;-70
2023/09/09 08:34:43;;;;;;;6.15;5.60;;;;;;;;;;5036152;28;20045;-71
2023/09/09 08:37:08;;;;;;;6.88;5.78;;;;;;;;;;5020933;28;20085;-70
2023/09/09 08:39:34;;;;;;;6.40;5.32;;;;;;;;;;5023125;28;20136;-71
2023/09/09 08:42:20;;;;;;;6.38;5.40;;;;;;;;;;5020545;28;20131;-69
2023/09/09 08:45:14;;;;;;;6.82;5.82;;;;;;;;;;5031954;28;20516;-70
2023/09/09 08:47:41;;;;;;;6.07;5.47;;;;;;;;;;5020884;28;20063;-69
2023/09/09 08:50:08;;;;;;;5.45;4.95;;;;;;;;;;5024421;28;20140;-70
2023/09/09 08:52:34;;;;;;;5.60;5.05;;;;;;;;;;5020925;28;20045;-70
2023/09/09 08:55:00;;;;;;;6.45;5.57;;;;;;;;;;5021725;28;20049;-70
2023/09/09 08:57:27;;;;;;;7.80;6.05;;;;;;;;;;5025903;28;20041;-70
2023/09/09 08:59:53;;;;;;;8.00;5.82;;;;;;;;;;5021019;28;20053;-70
2023/09/09 09:02:18;;;;;;;6.72;5.88;;;;;;;;;;5024922;28;20081;-69
2023/09/09 09:04:45;;;;;;;8.38;6.70;;;;;;;;;;5035190;28;20974;-70
2023/09/09 09:07:12;;;;;;;7.18;6.15;;;;;;;;;;5022420;28;20048;-70
2023/09/09 09:09:38;;;;;;;8.43;6.80;;;;;;;;;;5021846;28;20476;-69
2023/09/09 09:12:04;;;;;;;8.02;6.85;;;;;;;;;;5028494;28;20561;-68
2023/09/09 09:14:29;;;;;;;8.68;5.88;;;;;;;;;;5023426;28;20045;-69
2023/09/09 09:16:55;;;;;;;7.15;6.40;;;;;;;;;;5027382;28;20048;-69
2023/09/09 09:19:28;;;;;;;9.32;6.72;;;;;;;;;;5022349;28;20143;-68
2023/09/09 09:21:55;;;;;;;8.35;6.38;;;;;;;;;;5031761;28;20055;-69
2023/09/09 09:24:25;;;;;;;6.50;5.88;;;;;;;;;;5039493;28;20045;-69
2023/09/09 09:26:50;;;;;;;6.88;6.28;;;;;;;;;;5019565;28;20509;-71
2023/09/09 09:29:16;;;;;;;9.00;6.82;;;;;;;;;;5023450;28;20080;-69
2023/09/09 09:31:41;;;;;;;7.15;6.45;;;;;;;;;;5021550;28;20108;-69
2023/09/09 09:34:09;;;;;;;6.28;5.68;;;;;;;;;;5020604;28;20071;-71
2023/09/09 09:36:35;;;;;;;10.00;6.32;;;;;;;;;;5033619;28;20041;-72
2023/09/09 09:39:10;;;;;;;7.18;5.78;;;;;;;;;;5037151;28;20049;-72
2023/09/09 09:41:39;;;;;;;7.80;6.00;;;;;;;;;;5020911;28;20053;-73
2023/09/09 09:44:15;;;;;;;6.85;5.65;;;;;;;;;;5021100;28;20099;-69
2023/09/09 09:46:41;;;;;;;7.22;6.05;;;;;;;;;;5021313;28;20041;-72
2023/09/09 09:49:08;;;;;;;9.60;6.68;;;;;;;;;;5034074;28;20045;-71
2023/09/09 09:51:43;;;;;;;7.65;6.18;;;;;;;;;;5028323;28;20041;-70
2023/09/09 09:54:09;;;;;;;6.28;5.65;;;;;;;;;;5035457;28;20418;-71
2023/09/09 09:56:36;;;;;;;6.53;5.57;;;;;;;;;;5035310;28;20052;-71
2023/09/09 09:59:01;;;;;;;6.13;5.10;;;;;;;;;;5035146;28;20048;-72
2023/09/09 10:01:28;;;;;;;6.22;5.63;;;;;;;;;;5033076;28;20044;-70
2023/09/09 10:03:58;;;;;;;8.40;5.38;;;;;;;;;;5020814;28;20045;-72
2023/09/09 10:06:26;;;;;;;6.78;5.10;;;;;;;;;;5020921;28;20053;-72
2023/09/09 10:09:09;;;;;;;5.95;5.35;;;;;;;;;;5019441;28;20662;-72
2023/09/09 10:11:42;;;;;;;5.97;5.43;;;;;;;;;;5023213;28;20072;-71
2023/09/09 10:14:14;;;;;;;6.78;4.70;;;;;;;;;;5023992;28;20622;-72
2023/09/09 10:16:41;;;;;;;6.85;4.75;;;;;;;;;;5035374;28;20947;-70
2023/09/09 10:19:08;;;;;;;5.15;4.63;;;;;;;;;;5037389;28;20080;-69
2023/09/09 10:21:34;;;;;;;5.18;4.68;;;;;;;;;;5034828;28;20495;-70
2023/09/09 10:24:01;;;;;;;5.20;4.70;;;;;;;;;;5020930;28;20498;-71
2023/09/09 10:26:28;;;;;;;5.38;4.57;;;;;;;;;;5018454;28;20049;-72
2023/09/09 10:28:54;;;;;;;9.43;5.10;;;;;;;;;;5019106;28;20490;-72
2023/09/09 10:31:19;;;;;;;7.55;4.70;;;;;;;;;;5022992;28;20095;-71
2023/09/09 10:33:47;;;;;;;6.60;4.70;;;;;;;;;;5020399;28;20107;-70
2023/09/09 10:36:17;;;;;;;5.78;4.78;;;;;;;;;;5034906;28;20072;-71
2023/09/09 10:38:42;;;;;;;5.22;4.43;;;;;;;;;;5023564;28;20037;-69
2023/09/09 10:41:10;;;;;;;5.22;4.72;;;;;;;;;;5023942;28;20580;-71
2023/09/09 10:43:35;;;;;;;5.55;4.75;;;;;;;;;;5021330;28;20679;-72
2023/09/09 10:46:01;;;;;;;7.82;4.82;;;;;;;;;;5020800;28;20051;-70
2023/09/09 10:48:27;;;;;;;5.82;5.22;;;;;;;;;;5022847;28;20064;-73
2023/09/09 10:50:53;;;;;;;5.80;4.90;;;;;;;;;;5019964;28;20060;-71
2023/09/09 10:53:26;;;;;;;6.10;4.80;;;;;;;;;;5019424;28;20041;-70
2023/09/09 10:55:58;;;;;;;5.93;5.07;;;;;;;;;;5008204;28;20045;-71
2023/09/09 10:58:34;;;;;;;5.40;4.90;;;;;;;;;;5020556;28;20056;-70
2023/09/09 11:01:02;;;;;;;9.18;5.53;;;;;;;;;;5026712;28;20045;-70
2023/09/09 11:03:36;;;;;;;8.15;5.93;;;;;;;;;;5039698;28;20041;-71
2023/09/09 11:06:03;;;;;;;5.93;5.32;;;;;;;;;;5018022;28;20087;-68
2023/09/09 11:08:41;;;;;;;7.57;5.60;;;;;;;;;;5026132;28;20072;-70
2023/09/09 11:11:17;;;;;;;5.28;4.55;;;;;;;;;;5024994;28;20132;-69
2023/09/09 11:13:48;;;;;;;5.80;4.88;;;;;;;;;;5019252;28;20108;-70
2023/09/09 11:16:30;;;;;;;5.40;4.85;;;;;;;;;;5021075;28;20043;-70
2023/09/09 11:18:58;;;;;;;6.38;4.95;;;;;;;;;;5033494;28;20053;-71
2023/09/09 11:21:24;;;;;;;5.85;5.25;;;;;;;;;;5039146;28;20037;-72
2023/09/09 11:23:52;;;;;;;5.13;4.72;;;;;;;;;;5020193;28;20409;-71
2023/09/09 11:26:18;;;;;;;6.80;5.25;;;;;;;;;;5021908;28;20038;-71
2023/09/09 11:28:45;;;;;;;5.65;5.00;;;;;;;;;;5022542;28;20064;-71
2023/09/09 11:31:12;;;;;;;5.97;5.43;;;;;;;;;;5023636;28;20053;-69
2023/09/09 11:33:38;;;;;;;7.88;4.97;;;;;;;;;;5023266;28;20123;-71
2023/09/09 11:36:04;;;;;;;5.82;4.65;;;;;;;;;;5023254;28;20152;-72
2023/09/09 11:38:33;;;;;;;5.90;5.38;;;;;;;;;;5024510;28;20045;-72
2023/09/09 11:40:59;;;;;;;5.82;5.32;;;;;;;;;;5024474;28;20045;-71
2023/09/09 11:43:24;;;;;;;6.53;5.18;;;;;;;;;;5028102;28;20055;-72
2023/09/09 11:45:51;;;;;;;7.38;5.18;;;;;;;;;;5033367;28;20040;-71
2023/09/09 11:48:17;;;;;;;5.97;5.38;;;;;;;;;;5031692;28;20128;-72
2023/09/09 11:50:43;;;;;;;5.45;4.95;;;;;;;;;;5020516;28;20160;-72
2023/09/09 11:53:11;;;;;;;5.15;4.65;;;;;;;;;;5020565;28;20045;-72
2023/09/09 11:55:37;;;;;;;5.22;4.72;;;;;;;;;;5024612;28;21151;-71
2023/09/09 11:58:03;;;;;;;6.70;5.13;;;;;;;;;;5027436;28;20083;-71
2023/09/09 12:00:28;;;;;;;5.90;5.30;;;;;;;;;;5023054;28;20076;-70
2023/09/09 12:02:54;;;;;;;6.78;4.90;;;;;;;;;;5023987;28;20446;-70
2023/09/09 12:05:20;;;;;;;5.53;5.03;;;;;;;;;;5042128;28;20052;-71
2023/09/09 12:07:46;;;;;;;7.68;5.45;;;;;;;;;;5022009;28;20049;-72
2023/09/09 12:10:14;;;;;;;6.13;5.53;;;;;;;;;;5020388;28;20048;-71
2023/09/09 12:12:45;;;;;;;5.75;5.15;;;;;;;;;;5020212;28;20069;-71
2023/09/09 12:15:11;;;;;;;5.97;5.10;;;;;;;;;;5023768;28;20041;-70
2023/09/09 12:17:37;;;;;;;5.53;5.03;;;;;;;;;;5020605;28;20099;-71
2023/09/09 12:20:10;;;;;;;6.18;5.57;;;;;;;;;;5021635;28;20049;-71
2023/09/09 12:22:46;;;;;;;6.35;5.63;;;;;;;;;;5028129;28;20144;-70
2023/09/09 12:25:31;;;;;;;7.50;5.07;;;;;;;;;;5031116;28;20100;-71
2023/09/09 12:27:57;;;;;;;13.32;4.90;;;;;;;;;;5019551;28;20064;-72
2023/09/09 12:30:41;;;;;;;7.82;4.78;;;;;;;;;;5036158;28;20049;-72
2023/09/09 12:33:13;;;;;;;6.25;4.90;;;;;;;;;;5029021;28;20052;-71
2023/09/09 12:35:42;;;;;;;5.75;5.22;;;;;;;;;;5020246;28;20123;-72
2023/09/09 12:38:08;;;;;;;6.25;5.30;;;;;;;;;;5020254;28;20107;-71
2023/09/09 12:40:53;;;;;;;5.72;5.22;;;;;;;;;;5028241;28;20585;-70
2023/09/09 12:43:26;;;;;;;9.05;5.43;;;;;;;;;;5037488;28;20703;-71
2023/09/09 12:46:03;;;;;;;6.43;5.05;;;;;;;;;;5028453;28;20053;-71
2023/09/09 12:48:28;;;;;;;5.45;4.95;;;;;;;;;;5022307;28;20057;-72
2023/09/09 12:50:54;;;;;;;5.90;5.38;;;;;;;;;;5023088;28;20052;-71
2023/09/09 12:53:20;;;;;;;6.40;5.68;;;;;;;;;;5027262;28;20563;-70
2023/09/09 12:55:46;;;;;;;6.40;5.32;;;;;;;;;;5022309;28;20521;-70
2023/09/09 12:58:12;;;;;;;8.18;5.45;;;;;;;;;;5031378;28;20048;-71
2023/09/09 13:00:38;;;;;;;7.75;5.72;;;;;;;;;;5022055;28;20163;-70
2023/09/09 13:03:04;;;;;;;6.00;5.40;;;;;;;;;;5019198;28;20106;-68
2023/09/09 13:05:29;;;;;;;6.35;5.30;;;;;;;;;;5020569;28;20084;-70
2023/09/09 13:07:55;;;;;;;8.43;5.80;;;;;;;;;;5033722;28;20041;-69
2023/09/09 13:10:21;;;;;;;6.13;5.43;;;;;;;;;;5024003;28;20045;-71
2023/09/09 13:12:47;;;;;;;8.68;5.43;;;;;;;;;;5030312;28;20992;-71
2023/09/09 13:15:13;;;;;;;5.90;5.40;;;;;;;;;;5028127;28;20128;-70
2023/09/09 13:17:38;;;;;;;6.13;5.53;;;;;;;;;;5020443;28;20045;-70
2023/09/09 13:20:05;;;;;;;6.97;5.28;;;;;;;;;;5018612;28;20049;-69
2023/09/09 13:22:31;;;;;;;7.55;5.43;;;;;;;;;;5033340;28;20041;-69
2023/09/09 13:24:56;;;;;;;6.10;5.50;;;;;;;;;;5032732;28;20867;-70
2023/09/09 13:27:22;;;;;;;6.00;5.40;;;;;;;;;;5017787;28;20510;-70
2023/09/09 13:29:47;;;;;;;9.77;5.32;;;;;;;;;;5021402;28;20178;-70
2023/09/09 13:32:12;;;;;;;5.85;5.30;;;;;;;;;;5018302;28;20045;-69
2023/09/09 13:34:38;;;;;;;6.18;5.57;;;;;;;;;;5026625;28;20075;-70
2023/09/09 13:37:03;;;;;;;7.20;5.70;;;;;;;;;;5016858;28;20132;-69
2023/09/09 13:39:29;;;;;;;6.22;5.53;;;;;;;;;;5017863;28;20103;-69
2023/09/09 13:41:54;;;;;;;5.82;5.00;;;;;;;;;;5027728;28;20143;-70
2023/09/09 13:44:22;;;;;;;7.75;5.80;;;;;;;;;;5024947;28;20145;-68
2023/09/09 13:46:47;;;;;;;6.32;5.32;;;;;;;;;;5016813;28;20775;-69
2023/09/09 13:49:13;;;;;;;6.85;5.38;;;;;;;;;;5016972;28;20060;-69
2023/09/09 13:51:38;;;;;;;6.15;5.10;;;;;;;;;;5016368;28;20060;-70
2023/09/09 13:54:04;;;;;;;5.85;5.18;;;;;;;;;;5022246;28;20056;-70
2023/09/09 13:56:29;;;;;;;7.25;5.22;;;;;;;;;;5015984;28;20045;-69
2023/09/09 13:58:57;;;;;;;5.85;5.30;;;;;;;;;;5016483;28;20049;-70
2023/09/09 14:01:23;;;;;;;5.88;5.05;;;;;;;;;;5025895;28;20136;-70
2023/09/09 14:03:49;;;;;;;6.15;5.28;;;;;;;;;;5026737;28;20272;-70
2023/09/09 14:06:15;;;;;;;5.93;5.30;;;;;;;;;;5016016;28;20041;-69
2023/09/09 14:08:41;;;;;;;6.07;5.47;;;;;;;;;;5016564;28;20075;-69
2023/09/09 14:11:06;;;;;;;5.93;5.43;;;;;;;;;;5016513;28;20136;-70
2023/09/09 14:13:32;;;;;;;6.88;5.22;;;;;;;;;;5030394;28;20052;-69
2023/09/09 14:15:57;;;;;;;5.88;5.38;;;;;;;;;;5024365;28;20056;-69
2023/09/09 14:18:22;;;;;;;6.35;5.35;;;;;;;;;;5018184;28;20064;-69
2023/09/09 14:20:48;;;;;;;9.93;5.45;;;;;;;;;;5032760;28;20094;-71
2023/09/09 14:23:13;;;;;;;6.45;5.85;;;;;;;;;;5020247;28;20106;-70
2023/09/09 14:25:40;;;;;;;10.25;5.78;;;;;;;;;;5026452;28;20045;-70
2023/09/09 14:28:06;;;;;;;5.97;5.38;;;;;;;;;;5024137;28;20053;-70
2023/09/09 14:30:31;;;;;;;6.57;5.10;;;;;;;;;;5016650;28;20045;-71
2023/09/09 14:32:57;;;;;;;9.90;5.60;;;;;;;;;;5020978;28;20102;-70
2023/09/09 14:35:23;;;;;;;6.97;5.32;;;;;;;;;;5025552;28;20896;-70